createdAt,value
2022-11-20T00:01:22.204Z,17.13
2022-11-20T00:03:49.515Z,18.67
2022-11-20T00:06:18.268Z,18.17
2022-11-20T00:08:45.431Z,18.38
2022-11-20T00:11:18.371Z,19.90
2022-11-20T00:13:46.518Z,18.83
2022-11-20T00:16:16.046Z,19.27
2022-11-20T00:18:43.439Z,18.92
2022-11-20T00:21:27.458Z,18.38
2022-11-20T00:23:55.992Z,18.92
2022-11-20T00:26:24.972Z,17.83
2022-11-20T00:28:57.502Z,17.83
2022-11-20T00:31:24.742Z,18.52
2022-11-20T00:33:52.064Z,17.73
2022-11-20T00:36:24.517Z,18.63
2022-11-20T00:38:55.993Z,17.90
2022-11-20T00:41:23.349Z,17.48
2022-11-20T00:43:50.401Z,17.92
2022-11-20T00:46:19.983Z,17.95
2022-11-20T00:48:47.017Z,18.33
2022-11-20T00:51:16.233Z,18.85
2022-11-20T00:53:43.450Z,20.05
2022-11-20T00:56:15.831Z,21.73
2022-11-20T00:58:44.273Z,25.90
2022-11-20T01:01:17.275Z,25.80
2022-11-20T01:03:47.134Z,22.90
2022-11-20T01:06:27.402Z,22.42
2022-11-20T01:08:56.801Z,24.20
2022-11-20T01:11:32.293Z,25.10
2022-11-20T01:14:00.317Z,28.02
2022-11-20T01:16:38.207Z,28.55
2022-11-20T01:19:07.187Z,31.67
2022-11-20T01:21:36.455Z,26.67
2022-11-20T01:24:04.802Z,26.55
2022-11-20T01:26:34.299Z,24.83
2022-11-20T01:29:02.321Z,24.40
2022-11-20T01:31:31.669Z,24.65
2022-11-20T01:34:01.068Z,22.33
2022-11-20T01:36:30.426Z,21.90
2022-11-20T01:38:59.816Z,21.25
2022-11-20T01:41:46.878Z,20.15
2022-11-20T01:44:16.066Z,20.58
2022-11-20T01:47:10.413Z,21.98
2022-11-20T01:49:46.231Z,22.20
2022-11-20T01:52:28.728Z,20.92
2022-11-20T01:55:01.704Z,22.35
2022-11-20T01:57:31.223Z,20.35
2022-11-20T02:00:10.736Z,21.20
2022-11-20T02:02:38.594Z,19.83
2022-11-20T02:05:15.073Z,20.55
2022-11-20T02:07:42.788Z,19.65
2022-11-20T02:12:55.952Z,17.23
2022-11-20T02:15:26.308Z,16.23
2022-11-20T02:17:56.798Z,17.13
2022-11-20T02:20:23.515Z,17.00
2022-11-20T02:23:13.624Z,16.05
2022-11-20T02:25:42.043Z,15.45
2022-11-20T02:28:08.933Z,15.57
2022-11-20T02:30:35.686Z,15.93
2022-11-20T02:33:02.337Z,14.65
2022-11-20T02:35:29.017Z,15.68
2022-11-20T02:37:58.640Z,14.85
2022-11-20T02:40:25.770Z,15.05
2022-11-20T02:42:56.662Z,15.27
2022-11-20T02:45:24.292Z,16.02
2022-11-20T02:47:51.752Z,13.90
2022-11-20T02:50:18.741Z,15.75
2022-11-20T02:52:45.456Z,15.05
2022-11-20T02:55:12.634Z,14.70
2022-11-20T02:57:39.353Z,14.90
2022-11-20T03:00:07.785Z,15.35
2022-11-20T03:02:34.676Z,15.05
2022-11-20T03:05:01.547Z,15.20
2022-11-20T03:07:28.327Z,15.10
2022-11-20T03:09:55.103Z,14.52
2022-11-20T03:12:21.851Z,15.43
2022-11-20T03:14:52.871Z,16.17
2022-11-20T03:17:20.139Z,13.82
2022-11-20T03:19:46.854Z,14.93
2022-11-20T03:22:13.556Z,15.30
2022-11-20T03:24:40.241Z,15.52
2022-11-20T03:27:06.928Z,16.27
2022-11-20T03:29:33.683Z,15.80
2022-11-20T03:32:00.354Z,14.85
2022-11-20T03:34:27.011Z,14.80
2022-11-20T03:36:53.750Z,14.82
2022-11-20T03:39:20.664Z,15.73
2022-11-20T03:41:47.550Z,14.90
2022-11-20T03:44:14.309Z,14.55
2022-11-20T03:46:41.007Z,14.73
2022-11-20T03:49:07.708Z,16.13
2022-11-20T03:51:36.915Z,15.75
2022-11-20T03:54:08.394Z,15.15
2022-11-20T03:56:39.301Z,14.43
2022-11-20T03:59:06.214Z,15.40
2022-11-20T04:01:35.749Z,14.95
2022-11-20T04:04:02.765Z,14.43
2022-11-20T04:06:36.619Z,15.75
2022-11-20T04:09:03.807Z,15.32
2022-11-20T04:11:32.295Z,15.00
2022-11-20T04:14:04.544Z,13.70
2022-11-20T04:16:36.710Z,14.32
2022-11-20T04:19:05.853Z,14.43
2022-11-20T04:21:32.754Z,14.68
2022-11-20T04:23:59.737Z,14.57
2022-11-20T04:26:30.977Z,15.10
2022-11-20T04:28:59.171Z,14.50
2022-11-20T04:31:29.167Z,13.30
2022-11-20T04:33:56.510Z,14.55
2022-11-20T04:36:27.798Z,15.13
2022-11-20T04:38:57.348Z,13.40
2022-11-20T04:41:26.677Z,13.80
2022-11-20T04:43:59.957Z,13.77
2022-11-20T04:46:28.291Z,13.82
2022-11-20T04:48:55.024Z,13.70
2022-11-20T04:51:21.816Z,15.13
2022-11-20T04:53:48.672Z,14.02
2022-11-20T04:56:15.463Z,14.45
2022-11-20T04:58:42.496Z,13.98
2022-11-20T05:01:14.397Z,14.25
2022-11-20T05:03:42.931Z,13.85
2022-11-20T05:06:11.417Z,13.25
2022-11-20T05:08:38.191Z,14.40
2022-11-20T05:11:07.471Z,13.63
2022-11-20T05:13:34.259Z,13.90
2022-11-20T05:16:19.458Z,13.93
2022-11-20T05:18:46.994Z,13.70
2022-11-20T05:21:14.224Z,13.18
2022-11-20T05:23:41.795Z,13.90
2022-11-20T05:26:13.540Z,13.55
2022-11-20T05:28:40.299Z,13.88
2022-11-20T05:31:12.687Z,12.88
2022-11-20T05:33:42.767Z,13.43
2022-11-20T05:36:10.272Z,13.50
2022-11-20T05:38:37.017Z,13.40
2022-11-20T05:41:09.624Z,13.55
2022-11-20T05:43:38.267Z,13.45
2022-11-20T05:46:06.785Z,13.55
2022-11-20T05:48:34.438Z,12.35
2022-11-20T05:51:02.815Z,13.93
2022-11-20T05:53:29.898Z,13.77
2022-11-20T05:56:05.181Z,12.80
2022-11-20T05:58:33.053Z,12.80
2022-11-20T06:01:12.644Z,13.93
2022-11-20T06:03:40.253Z,12.52
2022-11-20T06:06:07.715Z,13.52
2022-11-20T06:08:35.052Z,12.95
2022-11-20T06:11:06.904Z,13.52
2022-11-20T06:13:35.230Z,13.23
2022-11-20T06:16:04.295Z,12.38
2022-11-20T06:18:31.623Z,13.13
2022-11-20T06:21:13.606Z,12.65
2022-11-20T06:23:41.258Z,13.82
2022-11-20T06:26:10.163Z,13.45
2022-11-20T06:31:06.873Z,13.25
2022-11-20T06:33:34.417Z,14.13
2022-11-20T06:36:10.356Z,12.45
2022-11-20T06:38:38.088Z,12.95
2022-11-20T06:41:08.144Z,12.70
2022-11-20T06:43:34.974Z,13.82
2022-11-20T06:46:01.750Z,14.60
2022-11-20T06:48:29.743Z,19.90
2022-11-20T06:50:57.365Z,21.23
2022-11-20T06:53:25.047Z,21.05
2022-11-20T06:55:52.743Z,19.45
2022-11-20T06:58:19.547Z,16.48
2022-11-20T07:00:46.424Z,15.23
2022-11-20T07:03:13.958Z,14.98
2022-11-20T07:05:41.288Z,15.05
2022-11-20T07:08:08.386Z,14.55
2022-11-20T07:10:35.135Z,14.52
2022-11-20T07:13:02.006Z,14.75
2022-11-20T07:15:28.748Z,14.95
2022-11-20T07:17:55.431Z,15.18
2022-11-20T07:20:22.255Z,15.32
2022-11-20T07:22:55.358Z,15.68
2022-11-20T07:25:22.243Z,16.13
2022-11-20T07:27:48.987Z,14.77
2022-11-20T07:30:16.913Z,17.40
2022-11-20T07:32:43.610Z,16.85
2022-11-20T07:35:10.288Z,15.93
2022-11-20T07:37:36.966Z,16.90
2022-11-20T07:40:04.604Z,16.45
2022-11-20T07:42:31.338Z,17.85
2022-11-20T07:44:58.024Z,16.50
2022-11-20T07:47:24.701Z,15.82
2022-11-20T07:49:51.490Z,19.00
2022-11-20T07:52:18.282Z,17.92
2022-11-20T07:54:44.954Z,17.67
2022-11-20T07:57:11.696Z,17.75
2022-11-20T07:59:39.790Z,18.83
2022-11-20T08:02:06.685Z,19.25
2022-11-20T08:04:34.198Z,18.55
2022-11-20T08:07:00.961Z,18.27
2022-11-20T08:09:27.761Z,18.63
2022-11-20T08:12:13.226Z,19.23
2022-11-20T08:14:39.949Z,19.70
2022-11-20T08:17:06.771Z,18.98
2022-11-20T08:19:33.832Z,20.27
2022-11-20T08:22:00.555Z,22.27
2022-11-20T08:24:27.435Z,21.77
2022-11-20T08:26:54.218Z,23.02
2022-11-20T08:29:21.222Z,23.38
2022-11-20T08:31:48.315Z,24.63
2022-11-20T08:34:18.962Z,23.00
2022-11-20T08:36:46.114Z,23.90
2022-11-20T08:39:13.525Z,23.10
2022-11-20T08:41:40.278Z,21.85
2022-11-20T08:44:08.757Z,23.10
2022-11-20T08:46:38.895Z,22.27
2022-11-20T08:49:07.197Z,22.95
2022-11-20T08:51:34.754Z,23.38
2022-11-20T08:54:01.691Z,22.08
2022-11-20T08:56:29.332Z,23.60
2022-11-20T08:59:20.168Z,23.80
2022-11-20T09:01:42.948Z,24.08
2022-11-20T09:04:09.633Z,24.17
2022-11-20T09:06:36.352Z,24.90
2022-11-20T09:09:06.605Z,24.80
2022-11-20T09:11:35.388Z,23.48
2022-11-20T09:14:03.736Z,23.08
2022-11-20T09:16:30.884Z,22.55
2022-11-20T09:19:20.599Z,22.77
2022-11-20T09:21:44.368Z,21.77
2022-11-20T09:24:11.099Z,22.60
2022-11-20T09:26:37.791Z,23.77
2022-11-20T09:29:04.604Z,23.05
2022-11-20T09:31:31.351Z,22.60
2022-11-20T09:33:58.034Z,22.98
2022-11-20T09:36:24.889Z,22.17
2022-11-20T09:38:51.567Z,22.25
2022-11-20T09:41:37.004Z,23.40
2022-11-20T09:44:25.902Z,23.73
2022-11-20T09:47:03.835Z,23.23
2022-11-20T09:49:51.568Z,23.07
2022-11-20T09:52:28.100Z,24.42
2022-11-20T09:54:56.199Z,25.17
2022-11-20T09:57:39.313Z,23.90
2022-11-20T10:00:12.777Z,24.83
2022-11-20T10:02:56.118Z,24.30
2022-11-20T10:05:28.929Z,25.00
2022-11-20T10:08:25.364Z,24.40
2022-11-20T10:10:54.999Z,23.67
2022-11-20T10:13:45.942Z,27.23
2022-11-20T10:16:54.842Z,24.85
2022-11-20T10:19:40.525Z,24.50
2022-11-20T10:22:22.667Z,24.92
2022-11-20T10:25:18.900Z,24.63
2022-11-20T10:28:10.643Z,25.88
2022-11-20T10:30:40.975Z,27.67
2022-11-20T10:33:23.522Z,26.98
2022-11-20T10:36:13.387Z,27.20
2022-11-20T10:39:00.739Z,29.23
2022-11-20T10:41:37.094Z,30.20
2022-11-20T10:44:45.277Z,28.77
2022-11-20T10:47:17.415Z,33.17
2022-11-20T10:49:51.391Z,32.60
2022-11-20T10:52:36.566Z,34.47
2022-11-20T10:55:17.060Z,32.38
2022-11-20T10:58:15.613Z,31.83
2022-11-20T11:00:43.091Z,36.05
2022-11-20T11:03:28.425Z,32.88
2022-11-20T11:06:06.247Z,36.40
2022-11-20T11:08:37.351Z,37.33
2022-11-20T11:11:27.134Z,36.03
2022-11-20T11:13:53.880Z,40.17
2022-11-20T11:16:26.397Z,43.00
2022-11-20T11:19:04.127Z,44.50
2022-11-20T11:21:31.086Z,33.50
2022-11-20T11:24:27.043Z,34.33
2022-11-20T11:27:10.124Z,32.97
2022-11-20T11:29:39.817Z,37.72
2022-11-20T11:32:16.886Z,39.78
2022-11-20T11:34:43.866Z,35.28
2022-11-20T11:37:25.184Z,41.97
2022-11-20T11:40:22.383Z,38.08
2022-11-20T11:42:49.260Z,43.47
2022-11-20T11:45:18.462Z,44.70
2022-11-20T11:47:46.962Z,51.50
2022-11-20T11:50:13.629Z,43.45
2022-11-20T11:53:06.640Z,56.95
2022-11-20T11:55:45.108Z,49.00
2022-11-20T11:58:34.902Z,57.15
2022-11-20T12:01:25.728Z,50.55
2022-11-20T12:04:30.469Z,47.28
2022-11-20T12:07:30.979Z,42.75
2022-11-20T12:09:57.596Z,38.60
2022-11-20T12:12:31.039Z,41.67
2022-11-20T12:14:59.421Z,50.33
2022-11-20T12:17:26.151Z,45.72
2022-11-20T12:19:52.970Z,45.17
2022-11-20T12:22:42.794Z,46.33
2022-11-20T12:25:18.775Z,46.28
2022-11-20T12:28:05.408Z,43.38
2022-11-20T12:30:36.437Z,44.90
2022-11-20T12:33:18.781Z,41.83
2022-11-20T12:36:10.170Z,48.20
2022-11-20T12:38:55.266Z,54.17
2022-11-20T12:42:18.477Z,49.45
2022-11-20T12:45:12.217Z,52.00
2022-11-20T12:48:19.665Z,67.30
2022-11-20T12:51:24.072Z,58.00
2022-11-20T12:54:06.948Z,50.55
2022-11-20T12:57:03.561Z,55.35
2022-11-20T12:59:33.499Z,49.22
2022-11-20T13:02:29.148Z,44.13
2022-11-20T13:05:12.790Z,44.67
2022-11-20T13:07:39.785Z,43.22
2022-11-20T13:10:14.968Z,42.30
2022-11-20T13:12:49.830Z,43.60
2022-11-20T13:15:30.859Z,35.30
2022-11-20T13:18:02.562Z,36.30
2022-11-20T13:20:33.438Z,32.08
2022-11-20T13:23:00.136Z,30.90
2022-11-20T13:25:45.011Z,37.13
2022-11-20T13:28:12.695Z,33.10
2022-11-20T13:30:51.984Z,27.92
2022-11-20T13:33:24.534Z,31.42
2022-11-20T13:36:03.515Z,38.75
2022-11-20T13:38:45.085Z,40.35
2022-11-20T13:41:29.881Z,38.70
2022-11-20T13:44:23.130Z,39.33
2022-11-20T13:46:50.073Z,36.63
2022-11-20T13:49:24.361Z,34.35
2022-11-20T13:51:57.943Z,33.10
2022-11-20T13:54:33.769Z,34.35
2022-11-20T13:57:32.683Z,32.17
2022-11-20T14:00:11.352Z,37.63
2022-11-20T14:05:05.922Z,32.35
2022-11-20T14:07:43.596Z,32.42
2022-11-20T14:10:32.366Z,35.50
2022-11-20T14:12:59.891Z,34.03
2022-11-20T14:15:33.825Z,36.45
2022-11-20T14:18:11.967Z,32.05
2022-11-20T14:20:39.798Z,37.78
2022-11-20T14:23:11.273Z,35.47
2022-11-20T14:25:42.915Z,32.00
2022-11-20T14:28:26.983Z,34.15
2022-11-20T14:30:54.824Z,31.80
2022-11-20T14:33:25.815Z,32.20
2022-11-20T14:35:57.375Z,33.30
2022-11-20T14:38:29.843Z,35.75
2022-11-20T14:41:08.530Z,49.38
2022-11-20T14:46:06.794Z,42.92
2022-11-20T14:48:44.549Z,47.15
2022-11-20T14:51:13.143Z,46.40
2022-11-20T14:53:39.850Z,48.88
2022-11-20T14:56:08.253Z,47.35
2022-11-20T14:58:35.324Z,38.30
2022-11-20T15:01:05.526Z,41.70
2022-11-20T15:03:37.477Z,49.22
2022-11-20T15:06:05.987Z,53.03
2022-11-20T15:08:32.902Z,46.00
2022-11-20T15:11:00.115Z,46.85
2022-11-20T15:13:33.434Z,37.40
2022-11-20T15:16:02.307Z,36.83
2022-11-20T15:21:01.656Z,36.35
2022-11-20T15:23:29.686Z,35.75
2022-11-20T15:25:56.866Z,36.25
2022-11-20T15:28:34.264Z,34.95
2022-11-20T15:31:01.573Z,40.15
2022-11-20T15:33:28.680Z,43.60
2022-11-20T15:35:56.435Z,35.13
2022-11-20T15:38:23.289Z,41.05
2022-11-20T15:40:50.342Z,34.92
2022-11-20T15:43:17.046Z,30.55
2022-11-20T15:45:54.139Z,36.72
2022-11-20T15:48:33.125Z,31.83
2022-11-20T15:51:11.519Z,42.22
2022-11-20T15:53:42.533Z,43.28
2022-11-20T15:56:13.799Z,40.70
2022-11-20T15:58:41.749Z,26.98
2022-11-20T16:01:16.947Z,30.03
2022-11-20T16:03:43.981Z,33.95
2022-11-20T16:06:10.762Z,38.67
2022-11-20T16:08:37.530Z,29.52
2022-11-20T16:11:04.813Z,29.70
2022-11-20T16:13:51.792Z,30.33
2022-11-20T16:16:29.680Z,28.40
2022-11-20T16:18:56.951Z,27.10
2022-11-20T16:21:31.382Z,27.52
2022-11-20T16:24:06.824Z,27.77
2022-11-20T16:26:35.627Z,30.33
2022-11-20T16:31:30.379Z,29.30
2022-11-20T16:33:59.251Z,31.38
2022-11-20T16:36:30.965Z,30.60
2022-11-20T16:39:02.598Z,32.90
2022-11-20T16:41:32.523Z,32.65
2022-11-20T16:44:01.313Z,30.63
2022-11-20T16:49:00.857Z,40.83
2022-11-20T16:51:29.639Z,33.10
2022-11-20T16:56:28.952Z,41.08
2022-11-20T16:58:57.959Z,36.28
2022-11-20T17:01:26.196Z,36.45
2022-11-20T17:04:04.427Z,33.13
2022-11-20T17:06:36.413Z,35.28
2022-11-20T17:09:04.360Z,32.20
2022-11-20T17:11:33.447Z,32.80
2022-11-20T17:14:00.859Z,30.95
2022-11-20T17:16:27.913Z,27.60
2022-11-20T17:19:01.256Z,28.85
2022-11-20T17:21:32.529Z,30.10
2022-11-20T17:24:04.649Z,31.75
2022-11-20T17:26:32.814Z,32.00
2022-11-20T17:29:05.809Z,33.38
2022-11-20T17:31:34.257Z,30.00
2022-11-20T17:34:01.682Z,30.55
2022-11-20T17:36:30.125Z,34.00
2022-11-20T17:39:00.338Z,36.28
2022-11-20T17:41:29.024Z,47.13
2022-11-20T17:44:00.159Z,38.40
2022-11-20T17:46:33.460Z,38.20
2022-11-20T17:49:02.454Z,34.25
2022-11-20T17:51:31.582Z,33.65
2022-11-20T17:54:04.676Z,32.50
2022-11-20T17:56:54.057Z,34.03
2022-11-20T17:59:21.040Z,31.33
2022-11-20T18:01:47.908Z,30.33
2022-11-20T18:04:15.014Z,31.38
2022-11-20T18:06:42.556Z,33.42
2022-11-20T18:09:09.790Z,29.77
2022-11-20T18:11:38.975Z,31.48
2022-11-20T18:14:28.996Z,30.73
2022-11-20T18:16:57.804Z,33.30
2022-11-20T18:22:01.709Z,33.17
2022-11-20T18:24:32.837Z,37.13
2022-11-20T18:26:59.902Z,32.05
2022-11-20T18:29:27.200Z,31.95
2022-11-20T18:31:54.578Z,29.88
2022-11-20T18:34:21.569Z,31.10
2022-11-20T18:36:49.083Z,31.17
2022-11-20T18:39:16.621Z,30.80
2022-11-20T18:42:02.331Z,30.95
2022-11-20T18:44:49.632Z,31.63
2022-11-20T18:47:37.951Z,30.55
2022-11-20T18:50:07.022Z,30.58
2022-11-20T18:52:39.036Z,32.20
2022-11-20T18:55:06.977Z,32.17
2022-11-20T18:57:34.304Z,33.63
2022-11-20T19:00:08.076Z,47.30
2022-11-20T19:02:41.148Z,36.38
2022-11-20T19:05:09.718Z,50.70
2022-11-20T19:07:36.510Z,34.25
2022-11-20T19:10:04.571Z,31.50
2022-11-20T19:12:31.563Z,30.65
2022-11-20T19:14:58.437Z,31.20
2022-11-20T19:17:25.136Z,32.03
2022-11-20T19:19:52.243Z,29.27
2022-11-20T19:22:19.031Z,30.23
2022-11-20T19:24:46.063Z,29.30
2022-11-20T19:27:12.866Z,30.65
2022-11-20T19:29:39.758Z,29.95
2022-11-20T19:32:06.583Z,30.10
2022-11-20T19:34:33.334Z,28.80
2022-11-20T19:37:01.038Z,29.05
2022-11-20T19:39:27.889Z,26.05
2022-11-20T19:41:54.653Z,26.50
2022-11-20T19:44:21.430Z,28.50
2022-11-20T19:46:48.259Z,31.90
2022-11-20T19:49:15.455Z,30.92
2022-11-20T19:51:47.521Z,27.52
2022-11-20T19:54:14.732Z,28.05
2022-11-20T19:56:41.448Z,28.52
2022-11-20T19:59:08.177Z,29.42
2022-11-20T20:01:35.369Z,30.10
2022-11-20T20:04:05.000Z,29.13
2022-11-20T20:06:34.016Z,28.05
2022-11-20T20:09:06.847Z,32.00
2022-11-20T20:11:34.802Z,27.98
2022-11-20T20:14:10.181Z,28.97
2022-11-20T20:16:36.959Z,27.70
2022-11-20T20:19:05.219Z,25.92
2022-11-20T20:21:34.034Z,29.08
2022-11-20T20:26:30.263Z,27.77
2022-11-20T20:28:57.246Z,31.17
2022-11-20T20:31:31.081Z,33.40
2022-11-20T20:33:58.114Z,36.90
2022-11-20T20:36:25.996Z,37.53
2022-11-20T20:38:54.177Z,36.20
2022-11-20T20:41:22.017Z,36.10
2022-11-20T20:44:07.483Z,37.00
2022-11-20T20:46:34.216Z,34.63
2022-11-20T20:49:01.543Z,31.73
2022-11-20T20:51:28.271Z,30.33
2022-11-20T20:53:54.915Z,30.30
2022-11-20T20:56:21.655Z,30.77
2022-11-20T20:58:48.515Z,31.65
2022-11-20T21:01:17.322Z,35.83
2022-11-20T21:06:12.054Z,33.50
2022-11-20T21:08:40.790Z,31.13
2022-11-20T21:11:16.535Z,36.75
2022-11-20T21:13:44.630Z,42.08
2022-11-20T21:16:12.666Z,31.08
2022-11-20T21:18:39.426Z,30.55
2022-11-20T21:21:26.411Z,31.48
2022-11-20T21:23:53.623Z,31.92
2022-11-20T21:26:21.295Z,36.30
2022-11-20T21:28:49.828Z,39.28
2022-11-20T21:31:22.088Z,39.47
2022-11-20T21:33:51.253Z,34.40
2022-11-20T21:36:26.220Z,35.83
2022-11-20T21:38:57.076Z,31.88
2022-11-20T21:41:25.508Z,33.63
2022-11-20T21:44:23.703Z,33.10
2022-11-20T21:46:42.677Z,36.10
2022-11-20T21:49:10.107Z,35.88
2022-11-20T21:51:36.933Z,34.40
2022-11-20T21:54:03.853Z,36.45
2022-11-20T21:56:30.579Z,35.70
2022-11-20T21:58:58.221Z,34.80
2022-11-20T22:01:27.509Z,34.70
2022-11-20T22:03:57.592Z,36.55
2022-11-20T22:06:27.048Z,36.70
2022-11-20T22:08:53.839Z,34.38
2022-11-20T22:11:22.239Z,33.50
2022-11-20T22:14:08.054Z,33.58
2022-11-20T22:16:36.384Z,34.20
2022-11-20T22:19:04.027Z,35.58
2022-11-20T22:21:31.346Z,32.08
2022-11-20T22:23:58.948Z,33.13
2022-11-20T22:26:33.927Z,32.13
2022-11-20T22:29:04.530Z,32.80
2022-11-20T22:31:33.872Z,34.20
2022-11-20T22:34:02.656Z,30.20
2022-11-20T22:38:57.796Z,31.25
2022-11-20T22:41:27.258Z,32.65
2022-11-20T22:43:56.565Z,30.52
2022-11-20T22:46:24.337Z,30.83
2022-11-20T22:48:59.293Z,35.03
2022-11-20T22:51:28.551Z,33.60
2022-11-20T22:53:55.515Z,33.70
2022-11-20T22:56:22.596Z,32.63
2022-11-20T22:58:51.197Z,33.00
2022-11-20T23:01:22.361Z,30.77
2022-11-20T23:03:51.536Z,33.55
2022-11-20T23:06:19.887Z,34.47
2022-11-20T23:08:46.975Z,33.25
2022-11-20T23:11:19.765Z,32.92
2022-11-20T23:13:47.325Z,34.25
2022-11-20T23:16:16.207Z,32.30
2022-11-20T23:18:43.855Z,32.70
2022-11-20T23:21:12.917Z,32.03
2022-11-20T23:23:40.402Z,31.95
2022-11-20T23:26:09.565Z,33.10
2022-11-20T23:28:36.799Z,31.30
2022-11-20T23:31:04.395Z,30.83
2022-11-20T23:33:31.606Z,31.80
2022-11-20T23:35:58.348Z,32.90
2022-11-20T23:38:25.020Z,30.27
2022-11-20T23:40:52.530Z,29.70
2022-11-20T23:43:21.791Z,29.48
2022-11-20T23:45:53.350Z,30.85
2022-11-20T23:48:21.792Z,30.10
2022-11-20T23:50:49.079Z,30.77
2022-11-20T23:53:16.676Z,29.13
2022-11-20T23:55:54.469Z,30.85
2022-11-20T23:58:22.546Z,28.87
